Terminal Aerodrome Forecast
Issued by NWS

Home | Current Version | Previous Version | Graphics & Text | Print | Product List | Glossary On
Versions: 1 2 3 4 5 6 7 8 9 10 11 12 13 14
337
FTUS42 KMHX 200544
TAFOAJ
TAF
KOAJ 200544Z 2006/2106 00000KT P6SM SKC
     FM200700 00000KT 5SM BR SCT003
     FM200830 00000KT 3SM BR SCT003
      TEMPO 2010/2012 2SM BR
     FM201230 VRB03KT P6SM SKC
     FM201800 VRB04KT P6SM SCT045
      AMD LTD TO CLD VIS AND WIND=

USA.gov is the U.S. government's official web portal to all federal, state and local government web resources and services.